createdAt,value
2018-07-02T00:00:11.082Z,33.70
2018-07-02T00:01:11.061Z,34.50
2018-07-02T00:02:11.071Z,33.61
2018-07-02T00:03:11.057Z,33.80
2018-07-02T00:04:11.033Z,34.10
2018-07-02T00:05:11.031Z,33.70
2018-07-02T00:06:11.149Z,33.80
2018-07-02T00:07:11.005Z,33.90
2018-07-02T00:08:10.998Z,33.90
2018-07-02T00:09:10.991Z,34.10
2018-07-02T00:10:10.984Z,33.90
2018-07-02T00:11:10.961Z,33.90
2018-07-02T00:12:11.062Z,34.00
2018-07-02T00:13:10.946Z,34.20
2018-07-02T00:14:11.002Z,34.00
2018-07-02T00:15:10.937Z,33.61
2018-07-02T00:16:10.911Z,33.80
2018-07-02T00:17:11.025Z,34.20
2018-07-02T00:18:10.921Z,33.90
2018-07-02T00:19:10.970Z,34.01
2018-07-02T00:20:10.872Z,33.72
2018-07-02T00:21:10.861Z,33.90
2018-07-02T00:22:10.848Z,33.80
2018-07-02T00:23:10.951Z,34.22
2018-07-02T00:24:10.842Z,32.83
2018-07-02T00:25:10.810Z,33.31
2018-07-02T00:26:10.796Z,32.81
2018-07-02T00:27:10.800Z,33.23
2018-07-02T00:28:10.787Z,32.92
2018-07-02T00:29:10.778Z,33.70
2018-07-02T00:30:10.912Z,33.52
2018-07-02T00:31:10.849Z,33.92
2018-07-02T00:32:10.733Z,33.42
2018-07-02T00:33:10.831Z,33.23
2018-07-02T00:34:10.827Z,33.42
2018-07-02T00:35:10.846Z,33.13
2018-07-02T00:36:10.703Z,33.31
2018-07-02T00:37:10.696Z,33.03
2018-07-02T00:38:10.796Z,33.72
2018-07-02T00:39:10.674Z,33.52
2018-07-02T00:40:10.661Z,33.23
2018-07-02T00:41:10.652Z,33.42
2018-07-02T00:42:10.639Z,34.22
2018-07-02T00:43:10.630Z,33.33
2018-07-02T00:44:10.725Z,34.12
2018-07-02T00:45:10.707Z,33.13
2018-07-02T00:46:10.605Z,33.52
2018-07-02T00:47:10.576Z,33.82
2018-07-02T00:48:10.685Z,33.13
2018-07-02T00:49:10.683Z,33.23
2018-07-02T00:50:10.659Z,34.31
2018-07-02T00:51:10.538Z,33.33
2018-07-02T00:52:10.557Z,33.52
2018-07-02T00:53:10.639Z,33.42
2018-07-02T00:54:10.615Z,33.82
2018-07-02T00:55:10.503Z,32.83
2018-07-02T00:56:10.497Z,33.13
2018-07-02T00:57:10.593Z,32.93
2018-07-02T00:58:10.478Z,33.82
2018-07-02T00:59:10.468Z,34.22
2018-07-02T01:00:10.557Z,33.72
2018-07-02T01:01:10.434Z,33.62
2018-07-02T01:02:10.525Z,33.52
2018-07-02T01:03:10.425Z,33.62
2018-07-02T01:04:10.534Z,33.92
2018-07-02T01:05:10.409Z,33.72
2018-07-02T01:06:10.382Z,33.82
2018-07-02T01:07:10.364Z,33.72
2018-07-02T01:08:10.481Z,33.62
2018-07-02T01:09:10.587Z,33.72
2018-07-02T01:10:10.351Z,33.72
2018-07-02T01:11:10.357Z,33.62
2018-07-02T01:12:10.328Z,33.62
2018-07-02T01:13:10.427Z,33.82
2018-07-02T01:14:10.297Z,34.01
2018-07-02T01:15:10.281Z,33.62
2018-07-02T01:16:10.283Z,33.92
2018-07-02T01:17:10.347Z,33.23
2018-07-02T01:18:10.388Z,33.92
2018-07-02T01:19:10.263Z,34.12
2018-07-02T01:20:10.229Z,33.52
2018-07-02T01:21:10.375Z,33.72
2018-07-02T01:22:10.241Z,33.82
2018-07-02T01:23:10.195Z,33.42
2018-07-02T01:24:10.278Z,33.62
2018-07-02T01:25:10.296Z,33.42
2018-07-02T01:26:10.246Z,33.72
2018-07-02T01:27:10.155Z,33.92
2018-07-02T01:28:10.259Z,33.14
2018-07-02T01:29:10.148Z,33.84
2018-07-02T01:30:10.125Z,33.72
2018-07-02T01:31:10.137Z,33.24
2018-07-02T01:32:10.103Z,34.03
2018-07-02T01:33:10.230Z,33.84
2018-07-02T01:34:10.104Z,33.34
2018-07-02T01:35:10.203Z,33.34
2018-07-02T01:36:10.180Z,33.64
2018-07-02T01:37:10.066Z,33.54
2018-07-02T01:38:10.047Z,33.14
2018-07-02T01:39:10.140Z,33.73
2018-07-02T01:40:10.050Z,33.24
2018-07-02T01:41:10.014Z,33.14
2018-07-02T01:42:09.999Z,32.65
2018-07-02T01:43:10.007Z,33.04
2018-07-02T01:44:09.996Z,33.24
2018-07-02T01:45:10.008Z,33.24
2018-07-02T01:46:09.976Z,33.54
2018-07-02T01:47:10.069Z,33.44
2018-07-02T01:48:10.046Z,33.14
2018-07-02T01:49:09.939Z,33.54
2018-07-02T01:50:09.918Z,33.73
2018-07-02T01:51:09.911Z,32.95
2018-07-02T01:52:10.007Z,32.15
2018-07-02T01:53:09.999Z,32.75
2018-07-02T01:54:09.977Z,32.25
2018-07-02T01:55:09.986Z,33.04
2018-07-02T01:56:09.965Z,32.25
2018-07-02T01:57:09.943Z,33.24
2018-07-02T01:58:09.864Z,32.25
2018-07-02T01:59:09.832Z,32.25
2018-07-02T02:00:09.824Z,33.14
2018-07-02T02:01:09.904Z,32.55
2018-07-02T02:02:09.792Z,32.45
2018-07-02T02:03:09.891Z,32.55
2018-07-02T02:04:09.893Z,32.35
2018-07-02T02:05:09.764Z,32.45
2018-07-02T02:06:09.753Z,32.85
2018-07-02T02:07:09.776Z,32.45
2018-07-02T02:08:09.878Z,32.55
2018-07-02T02:09:09.736Z,32.45
2018-07-02T02:10:09.717Z,32.95
2018-07-02T02:11:10.653Z,32.65
2018-07-02T02:12:09.690Z,32.45
2018-07-02T02:13:09.778Z,32.55
2018-07-02T02:14:09.681Z,32.85
2018-07-02T02:15:09.798Z,32.85
2018-07-02T02:16:09.757Z,32.85
2018-07-02T02:17:09.635Z,32.46
2018-07-02T02:18:09.754Z,32.85
2018-07-02T02:19:09.642Z,32.35
2018-07-02T02:20:09.610Z,32.55
2018-07-02T02:21:09.704Z,32.75
2018-07-02T02:22:09.586Z,32.65
2018-07-02T02:23:09.698Z,32.65
2018-07-02T02:24:09.682Z,33.04
2018-07-02T02:25:09.569Z,32.95
2018-07-02T02:26:09.555Z,32.65
2018-07-02T02:27:09.534Z,32.25
2018-07-02T02:28:09.613Z,32.55
2018-07-02T02:29:09.539Z,32.75
2018-07-02T02:30:09.526Z,33.14
2018-07-02T02:31:09.515Z,33.04
2018-07-02T02:32:09.489Z,32.85
2018-07-02T02:33:09.469Z,33.04
2018-07-02T02:34:09.470Z,33.06
2018-07-02T02:35:09.464Z,32.76
2018-07-02T02:36:09.445Z,32.75
2018-07-02T02:37:09.440Z,32.75
2018-07-02T02:38:09.421Z,33.26
2018-07-02T02:39:09.421Z,32.96
2018-07-02T02:40:09.512Z,32.96
2018-07-02T02:41:09.512Z,32.95
2018-07-02T02:42:09.486Z,32.76
2018-07-02T02:43:09.374Z,33.26
2018-07-02T02:44:09.368Z,32.95
2018-07-02T02:45:09.441Z,32.86
2018-07-02T02:46:09.348Z,32.96
2018-07-02T02:47:09.436Z,33.26
2018-07-02T02:48:09.339Z,32.86
2018-07-02T02:49:09.327Z,33.06
2018-07-02T02:50:09.413Z,33.06
2018-07-02T02:51:09.290Z,33.06
2018-07-02T02:52:09.415Z,32.76
2018-07-02T02:53:09.258Z,33.26
2018-07-02T02:54:09.268Z,32.67
2018-07-02T02:55:09.356Z,32.86
2018-07-02T02:56:09.228Z,33.16
2018-07-02T02:57:09.229Z,33.06
2018-07-02T02:58:09.345Z,33.26
2018-07-02T02:59:09.197Z,32.67
2018-07-02T03:00:09.300Z,32.86
2018-07-02T03:01:09.172Z,32.67
2018-07-02T03:02:09.162Z,32.86
2018-07-02T03:03:09.175Z,32.76
2018-07-02T03:04:09.154Z,32.76
2018-07-02T03:05:09.159Z,32.67
2018-07-02T03:06:09.136Z,32.67
2018-07-02T03:07:09.136Z,32.67
2018-07-02T03:08:09.188Z,32.67
2018-07-02T03:09:09.192Z,32.67
2018-07-02T03:10:09.204Z,32.86
2018-07-02T03:11:09.098Z,33.28
2018-07-02T03:12:09.219Z,32.86
2018-07-02T03:13:09.063Z,32.96
2018-07-02T03:14:09.036Z,32.76
2018-07-02T03:15:09.057Z,32.76
2018-07-02T03:16:09.034Z,32.27
2018-07-02T03:17:09.002Z,33.06
2018-07-02T03:18:08.994Z,32.67
2018-07-02T03:19:09.011Z,32.88
2018-07-02T03:20:09.099Z,33.07
2018-07-02T03:21:09.080Z,32.98
2018-07-02T03:22:08.966Z,33.28
2018-07-02T03:23:08.947Z,33.17
2018-07-02T03:24:09.030Z,32.86
2018-07-02T03:25:08.931Z,33.07
2018-07-02T03:26:08.928Z,32.88
2018-07-02T03:27:08.915Z,33.17
2018-07-02T03:28:08.890Z,32.37
2018-07-02T03:29:08.895Z,32.78
2018-07-02T03:30:08.920Z,32.98
2018-07-02T03:31:08.863Z,32.58
2018-07-02T03:32:08.965Z,32.86
2018-07-02T03:33:08.972Z,32.68
2018-07-02T03:34:08.944Z,32.68
2018-07-02T03:35:08.834Z,32.98
2018-07-02T03:36:08.888Z,33.07
2018-07-02T03:37:08.794Z,33.36
2018-07-02T03:38:08.802Z,32.98
2018-07-02T03:39:08.880Z,32.98
2018-07-02T03:40:08.791Z,33.07
2018-07-02T03:41:08.778Z,33.07
2018-07-02T03:42:08.746Z,32.88
2018-07-02T03:43:09.632Z,32.98
2018-07-02T03:44:08.730Z,32.98
2018-07-02T03:45:08.720Z,33.28
2018-07-02T03:46:08.708Z,33.37
2018-07-02T03:47:08.708Z,33.28
2018-07-02T03:48:08.698Z,32.88
2018-07-02T03:49:08.679Z,32.98
2018-07-02T03:50:08.677Z,32.98
2018-07-02T03:51:08.649Z,32.88
2018-07-02T03:52:08.786Z,32.78
2018-07-02T03:53:08.649Z,32.58
2018-07-02T03:54:08.628Z,33.28
2018-07-02T03:55:08.630Z,32.78
2018-07-02T03:56:08.740Z,33.17
2018-07-02T03:57:08.624Z,32.28
2018-07-02T03:58:08.599Z,32.78
2018-07-02T03:59:08.597Z,32.48
2018-07-02T04:00:08.567Z,32.98
2018-07-02T04:01:08.665Z,32.28
2018-07-02T04:02:08.665Z,33.07
2018-07-02T04:03:08.526Z,32.78
2018-07-02T04:04:08.638Z,32.98
2018-07-02T04:05:08.529Z,32.88
2018-07-02T04:06:08.498Z,32.50
2018-07-02T04:07:08.589Z,32.58
2018-07-02T04:08:08.599Z,32.58
2018-07-02T04:09:08.465Z,32.48
2018-07-02T04:10:08.470Z,32.58
2018-07-02T04:11:08.457Z,32.68
2018-07-02T04:12:08.488Z,32.60
2018-07-02T04:13:08.443Z,32.39
2018-07-02T04:14:08.421Z,32.68
2018-07-02T04:15:08.412Z,32.78
2018-07-02T04:16:08.525Z,32.18
2018-07-02T04:17:08.534Z,32.58
2018-07-02T04:18:08.377Z,32.20
2018-07-02T04:19:08.361Z,32.28
2018-07-02T04:20:08.361Z,32.58
2018-07-02T04:21:08.342Z,32.68
2018-07-02T04:22:08.424Z,32.68
2018-07-02T04:23:08.309Z,32.30
2018-07-02T04:24:08.416Z,32.28
2018-07-02T04:25:08.315Z,32.39
2018-07-02T04:26:08.298Z,32.20
2018-07-02T04:27:08.285Z,32.18
2018-07-02T04:28:08.260Z,32.40
2018-07-02T04:29:08.249Z,32.39
2018-07-02T04:30:08.380Z,32.18
2018-07-02T04:31:08.341Z,32.00
2018-07-02T04:32:08.232Z,33.28
2018-07-02T04:33:08.222Z,33.29
2018-07-02T04:34:08.213Z,33.07
2018-07-02T04:35:08.197Z,32.70
2018-07-02T04:36:08.326Z,33.78
2018-07-02T04:37:08.179Z,33.07
2018-07-02T04:38:08.154Z,32.89
2018-07-02T04:39:08.156Z,33.00
2018-07-02T04:40:08.270Z,33.67
2018-07-02T04:41:08.136Z,33.09
2018-07-02T04:42:08.208Z,33.09
2018-07-02T04:43:08.130Z,33.19
2018-07-02T04:44:08.092Z,33.59
2018-07-02T04:45:08.364Z,33.59
2018-07-02T04:46:08.085Z,33.59
2018-07-02T04:47:08.063Z,33.29
2018-07-02T04:48:08.164Z,33.39
2018-07-02T04:49:08.034Z,33.47
2018-07-02T04:50:08.029Z,33.19
2018-07-02T04:51:08.042Z,33.69
2018-07-02T04:52:08.016Z,33.29
2018-07-02T04:53:08.128Z,34.08
2018-07-02T04:54:08.097Z,33.89
2018-07-02T04:55:07.981Z,33.89
2018-07-02T04:56:07.979Z,33.98
2018-07-02T04:57:07.953Z,33.98
2018-07-02T04:58:08.065Z,33.49
2018-07-02T04:59:07.943Z,33.89
2018-07-02T05:00:08.068Z,33.59
2018-07-02T05:01:07.987Z,34.08
2018-07-02T05:02:07.899Z,33.69
2018-07-02T05:03:07.902Z,33.69
2018-07-02T05:04:07.890Z,33.49
2018-07-02T05:05:07.886Z,34.08
2018-07-02T05:06:07.876Z,33.49
2018-07-02T05:07:07.856Z,33.89
2018-07-02T05:08:07.836Z,33.49
2018-07-02T05:09:07.939Z,33.89
2018-07-02T05:10:07.828Z,34.18
2018-07-02T05:11:07.894Z,33.78
2018-07-02T05:12:07.807Z,34.18
2018-07-02T05:13:07.912Z,33.69
2018-07-02T05:14:07.773Z,33.69
2018-07-02T05:15:07.907Z,33.69
2018-07-02T05:16:07.877Z,34.08
2018-07-02T05:17:07.760Z,34.08
2018-07-02T05:18:07.745Z,33.78
2018-07-02T05:19:07.796Z,33.59
2018-07-02T05:20:07.821Z,33.69
2018-07-02T05:21:07.960Z,33.89
2018-07-02T05:22:07.702Z,33.69
2018-07-02T05:23:07.698Z,34.28
2018-07-02T05:24:07.725Z,33.69
2018-07-02T05:25:07.659Z,33.78
2018-07-02T05:26:07.661Z,34.28
2018-07-02T05:27:07.658Z,33.89
2018-07-02T05:28:07.764Z,33.89
2018-07-02T05:29:07.828Z,33.00
2018-07-02T05:31:17.967Z,33.49
2018-07-02T05:33:29.727Z,33.78
2018-07-02T05:34:30.790Z,33.69
2018-07-02T05:35:30.717Z,33.78
2018-07-02T05:36:30.824Z,33.69
2018-07-02T05:37:30.830Z,33.49
2018-07-02T05:38:30.654Z,33.49
2018-07-02T05:39:30.646Z,33.69
2018-07-02T05:40:30.698Z,33.59
2018-07-02T05:41:30.634Z,33.19
2018-07-02T05:42:30.597Z,33.29
2018-07-02T05:43:30.724Z,33.00
2018-07-02T05:44:30.586Z,33.49
2018-07-02T05:45:32.301Z,33.19
2018-07-02T05:46:30.695Z,33.00
2018-07-02T05:47:30.561Z,33.29
2018-07-02T05:48:30.572Z,34.28
2018-07-02T05:49:30.741Z,34.28
2018-07-02T05:50:29.572Z,34.48
2018-07-02T05:52:47.369Z,33.98
2018-07-02T05:53:48.137Z,34.48
2018-07-02T05:54:48.113Z,34.48
2018-07-02T05:55:47.109Z,33.89
2018-07-02T05:56:48.250Z,33.39
2018-07-02T05:57:48.587Z,34.38
2018-07-02T05:58:48.067Z,33.39
2018-07-02T05:59:47.222Z,33.59
2018-07-02T06:00:48.146Z,33.39
2018-07-02T06:01:48.144Z,33.39
2018-07-02T06:02:47.125Z,34.18
2018-07-02T06:03:48.449Z,33.89
2018-07-02T06:04:48.012Z,33.69
2018-07-02T06:05:48.001Z,33.39
2018-07-02T06:06:48.009Z,33.49
2018-07-02T06:07:48.077Z,33.69
2018-07-02T06:08:47.999Z,33.59
2018-07-02T06:09:47.952Z,34.10
2018-07-02T06:10:48.062Z,33.80
2018-07-02T06:11:47.921Z,33.59
2018-07-02T06:12:48.056Z,33.98
2018-07-02T06:13:47.918Z,33.80
2018-07-02T06:14:47.926Z,33.61
2018-07-02T06:15:47.937Z,33.78
2018-07-02T06:16:47.962Z,33.90
2018-07-02T06:17:47.958Z,33.90
2018-07-02T06:18:47.880Z,32.21
2018-07-02T06:19:48.000Z,32.50
2018-07-02T06:20:47.849Z,32.61
2018-07-02T06:21:47.845Z,32.42
2018-07-02T06:22:47.825Z,33.40
2018-07-02T06:23:47.811Z,33.31
2018-07-02T06:24:47.830Z,32.91
2018-07-02T06:25:48.020Z,32.42
2018-07-02T06:26:46.790Z,31.62
2018-07-02T06:27:47.779Z,31.92
2018-07-02T06:28:46.767Z,31.62
2018-07-02T06:29:47.765Z,31.72
2018-07-02T06:30:47.727Z,32.12
2018-07-02T06:31:47.896Z,31.62
2018-07-02T06:32:47.810Z,32.02
2018-07-02T06:33:47.820Z,32.51
2018-07-02T06:34:47.709Z,32.61
2018-07-02T06:35:47.684Z,32.91
2018-07-02T06:36:47.676Z,32.61
2018-07-02T06:37:48.226Z,32.61
2018-07-02T06:38:47.653Z,32.61
2018-07-02T06:39:47.651Z,32.82
2018-07-02T06:40:47.691Z,32.42
2018-07-02T06:41:46.639Z,32.61
2018-07-02T06:42:47.613Z,32.73
2018-07-02T06:43:47.736Z,32.82
2018-07-02T06:44:47.712Z,33.03
2018-07-02T06:45:47.716Z,32.63
2018-07-02T06:46:47.603Z,33.12
2018-07-02T06:47:47.550Z,32.63
2018-07-02T06:48:47.645Z,32.33
2018-07-02T06:49:47.561Z,32.73
2018-07-02T06:50:47.696Z,32.63
2018-07-02T06:51:47.893Z,32.24
2018-07-02T06:52:47.618Z,32.33
2018-07-02T06:53:47.628Z,32.73
2018-07-02T06:54:47.507Z,32.82
2018-07-02T06:55:47.509Z,32.33
2018-07-02T06:56:47.486Z,32.53
2018-07-02T06:57:47.447Z,33.12
2018-07-02T06:58:47.485Z,32.63
2018-07-02T06:59:47.457Z,32.63
2018-07-02T07:00:47.929Z,31.84
2018-07-02T07:01:47.421Z,31.84
2018-07-02T07:02:47.425Z,31.84
2018-07-02T07:03:47.500Z,32.43
2018-07-02T07:04:47.794Z,33.12
2018-07-02T07:05:46.520Z,32.63
2018-07-02T07:06:47.382Z,32.93
2018-07-02T07:07:48.105Z,32.93
2018-07-02T07:08:47.487Z,32.43
2018-07-02T07:09:47.458Z,32.43
2018-07-02T07:10:47.333Z,31.75
2018-07-02T07:11:47.444Z,31.84
2018-07-02T07:12:47.467Z,32.14
2018-07-02T07:13:47.451Z,31.44
2018-07-02T07:14:47.312Z,32.53
2018-07-02T07:15:47.307Z,32.73
2018-07-02T07:16:47.355Z,33.22
2018-07-02T07:17:47.281Z,32.63
2018-07-02T07:18:47.476Z,33.03
2018-07-02T07:19:46.379Z,32.33
2018-07-02T07:20:47.229Z,32.73
2018-07-02T07:21:47.395Z,32.82
2018-07-02T07:22:47.352Z,33.03
2018-07-02T07:23:47.221Z,32.53
2018-07-02T07:24:47.325Z,32.82
2018-07-02T07:25:47.298Z,33.03
2018-07-02T07:26:47.161Z,32.73
2018-07-02T07:27:47.166Z,32.63
2018-07-02T07:28:49.104Z,32.82
2018-07-02T07:29:47.166Z,32.64
2018-07-02T07:30:47.145Z,32.35
2018-07-02T07:31:47.112Z,32.75
2018-07-02T07:32:47.259Z,32.53
2018-07-02T07:33:48.234Z,32.23
2018-07-02T07:34:47.131Z,32.63
2018-07-02T07:35:47.164Z,32.33
2018-07-02T07:36:47.095Z,32.43
2018-07-02T07:37:47.071Z,32.93
2018-07-02T07:38:46.035Z,33.03
2018-07-02T07:39:47.045Z,33.22
2018-07-02T07:40:47.159Z,33.42
2018-07-02T07:41:47.022Z,33.33
2018-07-02T07:42:47.177Z,33.33
2018-07-02T07:43:46.996Z,33.03
2018-07-02T07:44:47.044Z,33.12
2018-07-02T07:45:45.980Z,32.53
2018-07-02T07:46:47.076Z,33.42
2018-07-02T07:47:46.980Z,33.22
2018-07-02T07:48:46.977Z,33.42
2018-07-02T07:49:46.940Z,33.33
2018-07-02T07:50:46.937Z,33.62
2018-07-02T07:51:46.924Z,34.01
2018-07-02T07:52:47.919Z,34.01
2018-07-02T07:53:47.056Z,33.52
2018-07-02T07:54:46.860Z,33.82
2018-07-02T07:55:46.862Z,33.82
2018-07-02T07:56:46.893Z,33.22
2018-07-02T07:57:46.873Z,33.82
2018-07-02T07:58:46.830Z,33.92
2018-07-02T07:59:46.825Z,33.42
2018-07-02T08:00:46.906Z,33.92
2018-07-02T08:01:47.434Z,33.72
2018-07-02T08:02:46.956Z,33.22
2018-07-02T08:03:46.773Z,33.52
2018-07-02T08:04:46.845Z,33.62
2018-07-02T08:05:46.778Z,33.92
2018-07-02T08:06:46.899Z,33.22
2018-07-02T08:07:46.746Z,33.62
2018-07-02T08:08:46.848Z,33.33
2018-07-02T08:09:46.796Z,34.12
2018-07-02T08:10:46.724Z,33.12
2018-07-02T08:11:47.079Z,33.62
2018-07-02T08:12:46.814Z,33.72
2018-07-02T08:13:46.958Z,33.22
2018-07-02T08:14:50.269Z,33.92
2018-07-02T08:15:46.769Z,33.33
2018-07-02T08:16:46.766Z,32.82
2018-07-02T08:17:46.748Z,32.63
2018-07-02T08:18:46.715Z,32.73
2018-07-02T08:19:46.618Z,33.14
2018-07-02T08:20:46.709Z,32.75
2018-07-02T08:21:46.601Z,32.53
2018-07-02T08:22:46.584Z,31.55
2018-07-02T08:23:46.733Z,33.44
2018-07-02T08:24:46.571Z,32.35
2018-07-02T08:25:46.565Z,32.45
2018-07-02T08:26:46.565Z,31.85
2018-07-02T08:27:46.526Z,32.64
2018-07-02T08:28:46.670Z,31.95
2018-07-02T08:29:46.523Z,31.95
2018-07-02T08:30:46.839Z,31.65
2018-07-02T08:31:46.498Z,31.85
2018-07-02T08:32:46.621Z,32.05
2018-07-02T08:33:47.759Z,31.15
2018-07-02T08:34:46.640Z,31.95
2018-07-02T08:35:46.459Z,31.85
2018-07-02T08:36:46.434Z,31.75
2018-07-02T08:37:46.542Z,32.15
2018-07-02T08:38:46.445Z,32.64
2018-07-02T08:39:46.429Z,31.85
2018-07-02T08:40:46.456Z,32.35
2018-07-02T08:41:46.877Z,31.95
2018-07-02T08:42:46.385Z,31.95
2018-07-02T08:43:46.357Z,32.75
2018-07-02T08:44:46.510Z,33.54
2018-07-02T08:45:46.413Z,34.13
2018-07-02T08:46:46.602Z,33.94
2018-07-02T08:47:46.343Z,33.94
2018-07-02T08:48:46.329Z,33.94
2018-07-02T08:49:46.310Z,32.24
2018-07-02T08:50:46.334Z,31.95
2018-07-02T08:51:46.311Z,32.35
2018-07-02T08:52:46.316Z,32.94
2018-07-02T08:53:46.251Z,33.34
2018-07-02T08:54:46.242Z,33.54
2018-07-02T08:55:46.249Z,31.95
2018-07-02T08:56:46.294Z,31.75
2018-07-02T08:57:46.226Z,31.65
2018-07-02T08:58:46.201Z,31.85
2018-07-02T08:59:46.403Z,32.35
2018-07-02T09:00:46.192Z,31.45
2018-07-02T09:01:46.180Z,32.35
2018-07-02T09:02:46.172Z,31.65
2018-07-02T09:03:46.183Z,32.54
2018-07-02T09:04:46.152Z,32.54
2018-07-02T09:05:46.129Z,32.05
2018-07-02T09:06:46.149Z,31.55
2018-07-02T09:07:46.179Z,32.64
2018-07-02T09:08:46.102Z,32.64
2018-07-02T09:09:46.102Z,31.85
2018-07-02T09:10:46.807Z,32.64
2018-07-02T09:11:46.211Z,31.65
2018-07-02T09:12:47.402Z,32.53
2018-07-02T09:13:46.277Z,31.84
2018-07-02T09:14:46.072Z,32.15
2018-07-02T09:15:47.108Z,32.15
2018-07-02T09:16:46.047Z,31.95
2018-07-02T09:17:46.121Z,31.45
2018-07-02T09:18:46.015Z,31.85
2018-07-02T09:19:45.986Z,31.74
2018-07-02T09:20:47.682Z,31.74
2018-07-02T09:21:45.966Z,31.04
2018-07-02T09:22:45.993Z,30.84
2018-07-02T09:23:45.999Z,31.63
2018-07-02T09:24:46.092Z,30.55
2018-07-02T09:25:45.940Z,30.25
2018-07-02T09:26:45.923Z,29.75
2018-07-02T09:27:46.078Z,30.25
2018-07-02T09:28:45.906Z,31.24
2018-07-02T09:29:45.925Z,31.24
2018-07-02T09:30:45.895Z,31.14
2018-07-02T09:31:45.870Z,31.14
2018-07-02T09:32:45.870Z,31.62
2018-07-02T09:33:46.107Z,30.55
2018-07-02T09:34:45.863Z,31.24
2018-07-02T09:35:45.842Z,29.85
2018-07-02T09:36:45.937Z,31.14
2018-07-02T09:37:45.840Z,30.94
2018-07-02T09:38:45.911Z,30.74
2018-07-02T09:39:45.796Z,30.15
2018-07-02T09:40:46.005Z,29.65
2018-07-02T09:41:45.757Z,30.55
2018-07-02T09:42:45.808Z,30.55
2018-07-02T09:43:45.896Z,29.85
2018-07-02T09:44:45.856Z,30.35
2018-07-02T09:45:45.723Z,30.84
2018-07-02T09:46:45.823Z,31.23
2018-07-02T09:47:45.806Z,30.55
2018-07-02T09:48:45.839Z,30.83
2018-07-02T09:49:45.716Z,31.24
2018-07-02T09:50:46.038Z,31.13
2018-07-02T09:51:46.835Z,31.24
2018-07-02T09:52:48.838Z,31.32
2018-07-02T09:53:45.752Z,31.14
2018-07-02T09:54:45.636Z,31.24
2018-07-02T09:55:45.642Z,31.72
2018-07-02T09:56:45.622Z,31.92
2018-07-02T09:57:45.671Z,32.51
2018-07-02T09:58:45.620Z,31.92
2018-07-02T09:59:45.596Z,31.92
2018-07-02T10:00:45.570Z,31.63
2018-07-02T10:01:45.568Z,31.72
2018-07-02T10:02:45.553Z,31.62
2018-07-02T10:03:45.556Z,31.92
2018-07-02T10:04:45.551Z,31.32
2018-07-02T10:05:45.843Z,32.51
2018-07-02T10:06:45.508Z,32.42
2018-07-02T10:07:45.533Z,32.51
2018-07-02T10:08:47.137Z,32.42
2018-07-02T10:09:44.598Z,31.82
2018-07-02T10:10:45.489Z,31.13
2018-07-02T10:11:45.469Z,31.02
2018-07-02T10:12:45.574Z,30.73
2018-07-02T10:13:45.583Z,31.52
2018-07-02T10:14:45.441Z,30.73
2018-07-02T10:15:45.555Z,30.81
2018-07-02T10:16:45.595Z,30.22
2018-07-02T10:17:45.421Z,29.92
2018-07-02T10:18:45.411Z,29.52
2018-07-02T10:19:45.391Z,29.74
2018-07-02T10:20:45.562Z,29.44
2018-07-02T10:21:45.398Z,29.52
2018-07-02T10:22:45.366Z,29.23
2018-07-02T10:23:45.516Z,29.52
2018-07-02T10:24:45.339Z,29.43
2018-07-02T10:25:45.474Z,29.52
2018-07-02T10:26:45.477Z,30.62
2018-07-02T10:27:45.294Z,30.13
2018-07-02T10:28:45.301Z,30.02
2018-07-02T10:29:45.298Z,30.41
2018-07-02T10:30:45.313Z,30.02
2018-07-02T10:31:45.321Z,30.12
2018-07-02T10:32:45.369Z,29.82
2018-07-02T10:33:45.243Z,30.22
2018-07-02T10:34:45.308Z,30.12
2018-07-02T10:35:45.349Z,30.91
2018-07-02T10:36:45.225Z,29.92
2018-07-02T10:37:45.248Z,30.62
2018-07-02T10:38:45.397Z,29.52
2018-07-02T10:39:45.223Z,29.52
2018-07-02T10:40:45.177Z,29.33
2018-07-02T10:41:45.360Z,29.72
2018-07-02T10:42:45.138Z,29.52
2018-07-02T10:43:45.400Z,29.13
2018-07-02T10:44:48.012Z,29.63
2018-07-02T10:45:45.115Z,30.22
2018-07-02T10:46:45.146Z,30.41
2018-07-02T10:47:45.087Z,29.72
2018-07-02T10:48:45.104Z,29.72
2018-07-02T10:49:45.074Z,30.22
2018-07-02T10:50:45.064Z,29.82
2018-07-02T10:51:45.069Z,30.12
2018-07-02T10:52:45.085Z,29.23
2018-07-02T10:53:45.043Z,29.43
2018-07-02T10:54:45.516Z,29.52
2018-07-02T10:55:45.544Z,28.53
2018-07-02T10:56:44.994Z,29.23
2018-07-02T10:57:45.173Z,29.03
2018-07-02T10:58:44.979Z,29.03
2018-07-02T10:59:43.982Z,28.83
2018-07-02T11:00:47.757Z,28.44
2018-07-02T11:01:44.950Z,29.52
2018-07-02T11:02:44.998Z,29.23
2018-07-02T11:03:45.047Z,29.51
2018-07-02T11:04:44.923Z,29.91
2018-07-02T11:05:45.041Z,29.43
2018-07-02T11:06:45.049Z,29.71
2018-07-02T11:07:45.069Z,30.02
2018-07-02T11:08:44.888Z,29.82
2018-07-02T11:09:44.894Z,29.71
2018-07-02T11:10:44.897Z,30.40
2018-07-02T11:11:44.848Z,30.21
2018-07-02T11:12:44.955Z,29.71
2018-07-02T11:13:44.842Z,29.61
2018-07-02T11:14:44.816Z,28.52
2018-07-02T11:15:44.804Z,28.53
2018-07-02T11:16:44.800Z,29.51
2018-07-02T11:17:44.792Z,29.51
2018-07-02T11:18:44.890Z,30.62
2018-07-02T11:19:44.801Z,29.81
2018-07-02T11:20:44.763Z,29.71
2018-07-02T11:21:44.891Z,30.00
2018-07-02T11:22:44.740Z,30.22
2018-07-02T11:23:44.928Z,30.81
2018-07-02T11:24:44.720Z,30.00
2018-07-02T11:25:44.707Z,30.90
2018-07-02T11:26:44.804Z,30.80
2018-07-02T11:27:44.855Z,31.21
2018-07-02T11:28:44.701Z,31.10
2018-07-02T11:29:44.667Z,30.99
2018-07-02T11:30:44.795Z,30.99
2018-07-02T11:31:44.638Z,31.59
2018-07-02T11:32:44.689Z,31.88
2018-07-02T11:33:44.637Z,31.59
2018-07-02T11:34:44.734Z,31.69
2018-07-02T11:35:44.743Z,31.29
2018-07-02T11:36:44.581Z,31.59
2018-07-02T11:37:44.633Z,31.59
2018-07-02T11:38:44.586Z,32.28
2018-07-02T11:39:44.685Z,31.69
2018-07-02T11:40:53.066Z,31.77
2018-07-02T11:41:44.568Z,31.57
2018-07-02T11:42:44.539Z,31.57
2018-07-02T11:43:46.049Z,31.77
2018-07-02T11:44:44.532Z,32.07
2018-07-02T11:45:44.665Z,31.57
2018-07-02T11:46:44.557Z,32.37
2018-07-02T11:47:44.610Z,33.16
2018-07-02T11:48:44.591Z,32.46
2018-07-02T11:49:44.689Z,32.86
2018-07-02T11:50:44.458Z,32.65
2018-07-02T11:51:44.456Z,32.76
2018-07-02T11:52:45.702Z,32.45
2018-07-02T11:53:44.408Z,32.25
2018-07-02T11:54:44.416Z,33.73
2018-07-02T11:55:44.927Z,33.54
2018-07-02T11:56:44.378Z,33.84
2018-07-02T11:57:44.673Z,33.44
2018-07-02T11:58:44.349Z,33.84
2018-07-02T11:59:44.514Z,33.64
2018-07-02T12:00:44.480Z,31.85
2018-07-02T12:01:44.479Z,32.65
2018-07-02T12:02:44.836Z,33.44
2018-07-02T12:03:44.434Z,33.64
2018-07-02T12:04:44.334Z,33.73
2018-07-02T12:05:45.299Z,32.95
2018-07-02T12:06:44.274Z,33.64
2018-07-02T12:07:44.441Z,33.23
2018-07-02T12:08:44.280Z,33.52
2018-07-02T12:09:44.496Z,33.23
2018-07-02T12:10:44.299Z,33.13
2018-07-02T12:11:44.409Z,32.95
2018-07-02T12:12:44.246Z,34.22
2018-07-02T12:13:44.325Z,34.22
2018-07-02T12:14:44.211Z,33.13
2018-07-02T12:15:44.411Z,33.23
2018-07-02T12:16:44.673Z,33.82
2018-07-02T12:17:44.165Z,32.34
2018-07-02T12:18:44.258Z,33.42
2018-07-02T12:19:44.292Z,33.52
2018-07-02T12:20:44.141Z,34.12
2018-07-02T12:21:44.283Z,34.12
2018-07-02T12:22:44.330Z,34.51
2018-07-02T12:23:44.107Z,34.01
2018-07-02T12:24:44.122Z,33.61
2018-07-02T12:25:44.084Z,34.01
2018-07-02T12:26:44.110Z,33.82
2018-07-02T12:28:55.120Z,34.20
2018-07-02T12:29:55.028Z,34.00
2018-07-02T12:30:56.113Z,34.50
2018-07-02T12:31:55.962Z,33.61
2018-07-02T12:32:55.812Z,33.70
2018-07-02T12:33:55.985Z,34.00
2018-07-02T12:34:55.789Z,34.59
2018-07-02T12:35:55.883Z,34.59
2018-07-02T12:36:55.915Z,34.30
2018-07-02T12:37:55.779Z,34.39
2018-07-02T12:38:55.896Z,34.99
2018-07-02T12:39:56.476Z,34.39
2018-07-02T12:40:55.824Z,34.39
2018-07-02T12:41:55.857Z,34.10
2018-07-02T12:42:55.725Z,32.12
2018-07-02T12:43:55.809Z,30.83
2018-07-02T12:44:54.869Z,31.43
2018-07-02T12:45:59.339Z,30.94
2018-07-02T12:46:55.972Z,30.54
2018-07-02T12:47:55.797Z,31.13
2018-07-02T12:49:01.725Z,31.33
2018-07-02T12:49:55.744Z,31.53
2018-07-02T12:50:55.620Z,32.52
2018-07-02T12:51:55.622Z,32.42
2018-07-02T12:52:55.741Z,32.92
2018-07-02T12:53:55.731Z,32.71
2018-07-02T12:54:55.764Z,33.01
2018-07-02T12:55:55.567Z,32.90
2018-07-02T12:56:55.570Z,33.21